sensor_id;sensor_type;location;lat;lon;timestamp;pressure;altitude;pressure_sealevel;temperature;humidity
40920;BME280;26652;50.280;19.026;2023-08-07T00:00:04;97076.97;;;16.74;100.00
40920;BME280;26652;50.280;19.026;2023-08-07T00:02:05;97070.81;;;16.75;100.00
40920;BME280;26652;50.280;19.026;2023-08-07T00:04:07;97070.53;;;16.72;100.00
40920;BME280;26652;50.280;19.026;2023-08-07T00:06:08;97070.56;;;16.77;100.00
40920;BME280;26652;50.280;19.026;2023-08-07T00:08:08;97067.75;;;16.78;100.00
40920;BME280;26652;50.280;19.026;2023-08-07T00:10:09;97080.66;;;16.93;100.00
40920;BME280;26652;50.280;19.026;2023-08-07T00:12:10;97058.50;;;16.82;100.00
40920;BME280;26652;50.280;19.026;2023-08-07T00:14:10;97054.38;;;16.76;100.00
40920;BME280;26652;50.280;19.026;2023-08-07T00:16:11;97065.97;;;16.84;100.00
40920;BME280;26652;50.280;19.026;2023-08-07T00:18:12;97051.06;;;16.81;100.00
40920;BME280;26652;50.280;19.026;2023-08-07T00:20:12;97053.59;;;16.76;100.00
40920;BME280;26652;50.280;19.026;2023-08-07T00:22:13;97055.66;;;16.79;100.00
40920;BME280;26652;50.280;19.026;2023-08-07T00:24:14;97049.47;;;16.75;100.00
40920;BME280;26652;50.280;19.026;2023-08-07T00:26:15;97055.91;;;16.77;100.00
40920;BME280;26652;50.280;19.026;2023-08-07T00:28:15;97050.81;;;16.87;100.00
40920;BME280;26652;50.280;19.026;2023-08-07T00:30:16;97060.59;;;16.85;100.00
40920;BME280;26652;50.280;19.026;2023-08-07T00:32:17;97080.63;;;16.88;100.00
40920;BME280;26652;50.280;19.026;2023-08-07T00:34:18;97060.56;;;16.80;100.00
40920;BME280;26652;50.280;19.026;2023-08-07T00:36:18;97054.66;;;16.85;100.00
40920;BME280;26652;50.280;19.026;2023-08-07T00:38:19;97065.75;;;16.90;100.00
40920;BME280;26652;50.280;19.026;2023-08-07T00:40:19;97061.91;;;16.98;100.00
40920;BME280;26652;50.280;19.026;2023-08-07T00:42:20;97064.22;;;16.99;100.00
40920;BME280;26652;50.280;19.026;2023-08-07T00:44:21;97071.47;;;17.13;100.00
40920;BME280;26652;50.280;19.026;2023-08-07T00:46:23;97065.53;;;17.07;100.00
40920;BME280;26652;50.280;19.026;2023-08-07T00:48:24;97055.16;;;16.82;100.00
40920;BME280;26652;50.280;19.026;2023-08-07T00:50:25;97054.44;;;16.96;100.00
40920;BME280;26652;50.280;19.026;2023-08-07T00:52:26;97049.03;;;16.93;100.00
40920;BME280;26652;50.280;19.026;2023-08-07T00:54:27;97070.72;;;17.17;100.00
40920;BME280;26652;50.280;19.026;2023-08-07T00:56:28;97055.28;;;17.17;100.00
40920;BME280;26652;50.280;19.026;2023-08-07T00:58:30;97045.19;;;16.95;100.00
40920;BME280;26652;50.280;19.026;2023-08-07T01:00:30;97052.22;;;17.20;100.00
40920;BME280;26652;50.280;19.026;2023-08-07T01:02:31;97029.78;;;17.00;100.00
40920;BME280;26652;50.280;19.026;2023-08-07T01:04:32;97037.53;;;17.11;100.00
40920;BME280;26652;50.280;19.026;2023-08-07T01:06:32;97038.06;;;17.13;100.00
40920;BME280;26652;50.280;19.026;2023-08-07T01:08:33;97031.63;;;17.10;100.00
40920;BME280;26652;50.280;19.026;2023-08-07T01:10:45;97032.88;;;17.03;100.00
40920;BME280;26652;50.280;19.026;2023-08-07T01:12:53;97057.34;;;17.20;100.00
40920;BME280;26652;50.280;19.026;2023-08-07T01:15:04;97039.31;;;17.05;100.00
40920;BME280;26652;50.280;19.026;2023-08-07T01:17:10;97038.53;;;16.99;100.00
40920;BME280;26652;50.280;19.026;2023-08-07T01:19:26;97037.94;;;16.77;100.00
40920;BME280;26652;50.280;19.026;2023-08-07T01:21:28;97049.22;;;16.76;100.00
40920;BME280;26652;50.280;19.026;2023-08-07T01:23:28;97047.16;;;16.68;100.00
40920;BME280;26652;50.280;19.026;2023-08-07T01:25:29;97043.50;;;16.59;100.00
40920;BME280;26652;50.280;19.026;2023-08-07T01:27:37;97049.66;;;16.58;100.00
40920;BME280;26652;50.280;19.026;2023-08-07T01:30:02;97043.47;;;16.54;100.00
40920;BME280;26652;50.280;19.026;2023-08-07T01:32:07;97053.19;;;16.47;100.00
40920;BME280;26652;50.280;19.026;2023-08-07T01:34:12;97050.19;;;16.60;100.00
40920;BME280;26652;50.280;19.026;2023-08-07T01:36:16;97042.94;;;16.47;100.00
40920;BME280;26652;50.280;19.026;2023-08-07T01:38:17;97047.25;;;16.41;100.00
40920;BME280;26652;50.280;19.026;2023-08-07T01:40:19;97054.69;;;16.38;100.00
40920;BME280;26652;50.280;19.026;2023-08-07T01:42:21;97049.09;;;16.46;100.00
40920;BME280;26652;50.280;19.026;2023-08-07T01:44:22;97045.03;;;16.55;100.00
40920;BME280;26652;50.280;19.026;2023-08-07T01:46:22;97044.34;;;16.75;100.00
40920;BME280;26652;50.280;19.026;2023-08-07T01:48:23;97028.38;;;16.67;100.00
40920;BME280;26652;50.280;19.026;2023-08-07T01:50:23;97053.81;;;16.69;100.00
40920;BME280;26652;50.280;19.026;2023-08-07T01:52:24;97048.84;;;16.47;100.00
40920;BME280;26652;50.280;19.026;2023-08-07T01:54:25;97050.75;;;16.67;100.00
40920;BME280;26652;50.280;19.026;2023-08-07T01:56:25;97053.56;;;16.65;100.00
40920;BME280;26652;50.280;19.026;2023-08-07T01:58:26;97047.88;;;16.58;100.00
40920;BME280;26652;50.280;19.026;2023-08-07T02:00:27;97042.25;;;16.66;100.00
40920;BME280;26652;50.280;19.026;2023-08-07T02:02:27;97040.16;;;16.58;100.00
40920;BME280;26652;50.280;19.026;2023-08-07T02:04:28;97046.88;;;16.64;100.00
40920;BME280;26652;50.280;19.026;2023-08-07T02:06:29;97040.66;;;16.55;100.00
40920;BME280;26652;50.280;19.026;2023-08-07T02:08:29;97044.75;;;16.51;100.00
40920;BME280;26652;50.280;19.026;2023-08-07T02:10:30;97054.78;;;16.53;100.00
40920;BME280;26652;50.280;19.026;2023-08-07T02:12:31;97044.22;;;16.49;100.00
40920;BME280;26652;50.280;19.026;2023-08-07T02:14:32;97037.56;;;16.53;100.00
40920;BME280;26652;50.280;19.026;2023-08-07T02:16:33;97044.53;;;16.63;100.00
40920;BME280;26652;50.280;19.026;2023-08-07T02:18:33;97039.41;;;16.63;100.00
40920;BME280;26652;50.280;19.026;2023-08-07T02:20:34;97042.53;;;16.75;100.00
40920;BME280;26652;50.280;19.026;2023-08-07T02:22:35;97046.38;;;16.67;100.00
40920;BME280;26652;50.280;19.026;2023-08-07T02:24:35;97047.59;;;16.55;100.00
40920;BME280;26652;50.280;19.026;2023-08-07T02:26:39;97067.41;;;16.64;100.00
40920;BME280;26652;50.280;19.026;2023-08-07T02:28:40;97043.97;;;16.51;100.00
40920;BME280;26652;50.280;19.026;2023-08-07T02:30:40;97058.13;;;16.53;100.00
40920;BME280;26652;50.280;19.026;2023-08-07T02:32:41;97069.28;;;16.74;100.00
40920;BME280;26652;50.280;19.026;2023-08-07T02:34:44;97039.84;;;16.50;100.00
40920;BME280;26652;50.280;19.026;2023-08-07T02:36:45;97060.41;;;16.50;100.00
40920;BME280;26652;50.280;19.026;2023-08-07T02:38:46;97053.41;;;16.40;100.00
40920;BME280;26652;50.280;19.026;2023-08-07T02:40:46;97057.81;;;16.45;100.00
40920;BME280;26652;50.280;19.026;2023-08-07T02:42:47;97050.00;;;16.24;100.00
40920;BME280;26652;50.280;19.026;2023-08-07T02:44:48;97053.88;;;16.32;100.00
40920;BME280;26652;50.280;19.026;2023-08-07T02:46:48;97057.97;;;16.28;100.00
40920;BME280;26652;50.280;19.026;2023-08-07T02:48:49;97060.03;;;16.31;100.00
40920;BME280;26652;50.280;19.026;2023-08-07T02:50:49;97059.00;;;16.27;100.00
40920;BME280;26652;50.280;19.026;2023-08-07T02:52:52;97056.41;;;16.27;100.00
40920;BME280;26652;50.280;19.026;2023-08-07T02:54:52;97071.13;;;16.37;100.00
40920;BME280;26652;50.280;19.026;2023-08-07T02:56:53;97077.13;;;16.52;100.00
40920;BME280;26652;50.280;19.026;2023-08-07T02:58:53;97059.31;;;16.41;100.00
40920;BME280;26652;50.280;19.026;2023-08-07T03:00:54;97059.91;;;16.53;100.00
40920;BME280;26652;50.280;19.026;2023-08-07T03:02:55;97080.56;;;16.73;100.00
40920;BME280;26652;50.280;19.026;2023-08-07T03:04:56;97056.53;;;16.47;100.00
40920;BME280;26652;50.280;19.026;2023-08-07T03:06:56;97056.53;;;16.47;100.00
40920;BME280;26652;50.280;19.026;2023-08-07T03:08:57;97063.72;;;16.45;100.00
40920;BME280;26652;50.280;19.026;2023-08-07T03:10:58;97081.50;;;16.57;100.00
40920;BME280;26652;50.280;19.026;2023-08-07T03:12:59;97069.69;;;16.56;100.00
40920;BME280;26652;50.280;19.026;2023-08-07T03:14:59;97085.91;;;16.61;100.00
40920;BME280;26652;50.280;19.026;2023-08-07T03:17:00;97052.16;;;16.43;100.00
40920;BME280;26652;50.280;19.026;2023-08-07T03:19:01;97059.38;;;16.51;100.00
40920;BME280;26652;50.280;19.026;2023-08-07T03:21:01;97068.84;;;16.45;100.00
40920;BME280;26652;50.280;19.026;2023-08-07T03:23:02;97076.84;;;16.49;100.00
40920;BME280;26652;50.280;19.026;2023-08-07T03:25:03;97073.19;;;16.40;100.00
40920;BME280;26652;50.280;19.026;2023-08-07T03:27:04;97073.38;;;16.28;100.00
40920;BME280;26652;50.280;19.026;2023-08-07T03:29:04;97056.91;;;16.24;100.00
40920;BME280;26652;50.280;19.026;2023-08-07T03:31:06;97059.00;;;16.27;100.00
40920;BME280;26652;50.280;19.026;2023-08-07T03:33:06;97052.19;;;16.11;100.00
40920;BME280;26652;50.280;19.026;2023-08-07T03:35:07;97083.84;;;16.21;100.00
40920;BME280;26652;50.280;19.026;2023-08-07T03:37:08;97055.94;;;15.93;100.00
40920;BME280;26652;50.280;19.026;2023-08-07T03:39:09;97058.53;;;15.98;100.00
40920;BME280;26652;50.280;19.026;2023-08-07T03:41:10;97059.34;;;16.03;100.00
40920;BME280;26652;50.280;19.026;2023-08-07T03:43:11;97076.81;;;16.07;100.00
40920;BME280;26652;50.280;19.026;2023-08-07T03:45:13;97066.16;;;15.88;100.00
40920;BME280;26652;50.280;19.026;2023-08-07T03:47:14;97080.47;;;15.84;100.00
40920;BME280;26652;50.280;19.026;2023-08-07T03:49:15;97061.66;;;15.73;100.00
40920;BME280;26652;50.280;19.026;2023-08-07T03:51:15;97089.41;;;16.08;100.00
40920;BME280;26652;50.280;19.026;2023-08-07T03:53:17;97086.84;;;16.08;100.00
40920;BME280;26652;50.280;19.026;2023-08-07T03:55:18;97078.66;;;16.11;100.00
40920;BME280;26652;50.280;19.026;2023-08-07T03:57:18;97094.09;;;16.16;100.00
40920;BME280;26652;50.280;19.026;2023-08-07T03:59:19;97097.91;;;16.14;100.00
40920;BME280;26652;50.280;19.026;2023-08-07T04:01:19;97098.19;;;16.17;100.00
40920;BME280;26652;50.280;19.026;2023-08-07T04:03:20;97087.31;;;16.05;100.00
40920;BME280;26652;50.280;19.026;2023-08-07T04:05:21;97109.56;;;16.26;100.00
40920;BME280;26652;50.280;19.026;2023-08-07T04:07:22;97084.06;;;16.15;100.00
40920;BME280;26652;50.280;19.026;2023-08-07T04:09:22;97091.34;;;16.28;100.00
40920;BME280;26652;50.280;19.026;2023-08-07T04:11:23;97090.81;;;16.26;100.00
40920;BME280;26652;50.280;19.026;2023-08-07T04:13:24;97085.94;;;16.24;100.00
40920;BME280;26652;50.280;19.026;2023-08-07T04:15:24;97091.97;;;16.08;100.00
40920;BME280;26652;50.280;19.026;2023-08-07T04:17:25;97085.81;;;16.09;100.00
40920;BME280;26652;50.280;19.026;2023-08-07T04:19:26;97104.16;;;16.23;100.00
40920;BME280;26652;50.280;19.026;2023-08-07T04:21:30;97091.09;;;16.29;100.00
40920;BME280;26652;50.280;19.026;2023-08-07T04:23:30;97096.50;;;16.33;100.00
40920;BME280;26652;50.280;19.026;2023-08-07T04:25:32;97097.59;;;16.42;100.00
40920;BME280;26652;50.280;19.026;2023-08-07T04:27:32;97107.88;;;16.42;100.00
40920;BME280;26652;50.280;19.026;2023-08-07T04:29:33;97118.41;;;16.41;100.00
40920;BME280;26652;50.280;19.026;2023-08-07T04:31:33;97100.28;;;16.20;100.00
40920;BME280;26652;50.280;19.026;2023-08-07T04:33:34;97107.94;;;16.15;100.00
40920;BME280;26652;50.280;19.026;2023-08-07T04:35:36;97094.56;;;16.13;100.00
40920;BME280;26652;50.280;19.026;2023-08-07T04:37:37;97102.28;;;16.13;100.00
40920;BME280;26652;50.280;19.026;2023-08-07T04:39:37;97095.84;;;16.11;100.00
40920;BME280;26652;50.280;19.026;2023-08-07T04:41:39;97116.91;;;16.13;100.00
40920;BME280;26652;50.280;19.026;2023-08-07T04:43:39;97109.66;;;16.05;100.00
40920;BME280;26652;50.280;19.026;2023-08-07T04:45:41;97090.22;;;15.82;100.00
40920;BME280;26652;50.280;19.026;2023-08-07T04:47:41;97094.91;;;15.90;100.00
40920;BME280;26652;50.280;19.026;2023-08-07T04:49:42;97091.00;;;15.82;100.00
40920;BME280;26652;50.280;19.026;2023-08-07T04:51:42;97092.00;;;15.81;100.00
40920;BME280;26652;50.280;19.026;2023-08-07T04:53:43;97116.78;;;15.97;100.00
40920;BME280;26652;50.280;19.026;2023-08-07T04:55:44;97109.72;;;15.83;100.00
40920;BME280;26652;50.280;19.026;2023-08-07T04:57:44;97107.84;;;15.73;100.00
40920;BME280;26652;50.280;19.026;2023-08-07T04:59:47;97107.00;;;15.67;100.00
40920;BME280;26652;50.280;19.026;2023-08-07T05:01:47;97122.59;;;15.88;100.00
40920;BME280;26652;50.280;19.026;2023-08-07T05:03:48;97101.16;;;15.72;100.00
40920;BME280;26652;50.280;19.026;2023-08-07T05:05:48;97100.88;;;15.68;100.00
40920;BME280;26652;50.280;19.026;2023-08-07T05:07:49;97122.75;;;15.76;100.00
40920;BME280;26652;50.280;19.026;2023-08-07T05:09:50;97112.91;;;15.68;100.00
40920;BME280;26652;50.280;19.026;2023-08-07T05:11:51;97113.63;;;15.58;100.00
40920;BME280;26652;50.280;19.026;2023-08-07T05:13:51;97118.91;;;15.52;100.00
40920;BME280;26652;50.280;19.026;2023-08-07T05:15:52;97132.34;;;15.59;100.00
40920;BME280;26652;50.280;19.026;2023-08-07T05:17:53;97116.97;;;15.59;100.00
40920;BME280;26652;50.280;19.026;2023-08-07T05:19:53;97122.50;;;15.51;100.00
40920;BME280;26652;50.280;19.026;2023-08-07T05:21:54;97124.38;;;15.60;100.00
40920;BME280;26652;50.280;19.026;2023-08-07T05:23:55;97126.22;;;15.60;100.00
40920;BME280;26652;50.280;19.026;2023-08-07T05:25:55;97146.38;;;15.78;100.00
40920;BME280;26652;50.280;19.026;2023-08-07T05:27:56;97127.06;;;15.70;100.00
40920;BME280;26652;50.280;19.026;2023-08-07T05:29:57;97116.06;;;15.75;100.00
40920;BME280;26652;50.280;19.026;2023-08-07T05:31:57;97136.09;;;15.78;100.00
40920;BME280;26652;50.280;19.026;2023-08-07T05:33:58;97132.38;;;15.91;100.00
40920;BME280;26652;50.280;19.026;2023-08-07T05:35:58;97132.66;;;15.67;100.00
40920;BME280;26652;50.280;19.026;2023-08-07T05:37:59;97125.03;;;15.73;100.00
40920;BME280;26652;50.280;19.026;2023-08-07T05:40:00;97137.59;;;15.74;100.00
40920;BME280;26652;50.280;19.026;2023-08-07T05:42:01;97136.78;;;15.68;100.00
40920;BME280;26652;50.280;19.026;2023-08-07T05:44:02;97147.34;;;15.99;100.00
40920;BME280;26652;50.280;19.026;2023-08-07T05:46:02;97133.47;;;16.00;100.00
40920;BME280;26652;50.280;19.026;2023-08-07T05:48:03;97158.03;;;16.18;100.00
40920;BME280;26652;50.280;19.026;2023-08-07T05:50:04;97127.81;;;15.98;100.00
40920;BME280;26652;50.280;19.026;2023-08-07T05:52:06;97133.03;;;16.08;100.00
40920;BME280;26652;50.280;19.026;2023-08-07T05:54:07;97154.31;;;16.03;100.00
40920;BME280;26652;50.280;19.026;2023-08-07T05:56:08;97149.78;;;16.16;100.00
40920;BME280;26652;50.280;19.026;2023-08-07T05:58:09;97147.44;;;16.09;100.00
40920;BME280;26652;50.280;19.026;2023-08-07T06:00:10;97140.50;;;16.10;100.00
40920;BME280;26652;50.280;19.026;2023-08-07T06:02:16;97143.59;;;16.12;100.00
40920;BME280;26652;50.280;19.026;2023-08-07T06:04:20;97137.97;;;16.15;100.00
40920;BME280;26652;50.280;19.026;2023-08-07T06:06:26;97144.66;;;16.16;100.00
40920;BME280;26652;50.280;19.026;2023-08-07T06:08:28;97144.66;;;16.16;100.00
40920;BME280;26652;50.280;19.026;2023-08-07T06:10:29;97137.19;;;16.14;100.00
40920;BME280;26652;50.280;19.026;2023-08-07T06:12:30;97161.56;;;16.12;100.00
40920;BME280;26652;50.280;19.026;2023-08-07T06:14:31;97143.03;;;16.05;100.00
40920;BME280;26652;50.280;19.026;2023-08-07T06:16:31;97146.69;;;16.14;100.00
40920;BME280;26652;50.280;19.026;2023-08-07T06:18:32;97157.00;;;16.19;100.00
40920;BME280;26652;50.280;19.026;2023-08-07T06:20:34;97175.78;;;16.24;100.00
40920;BME280;26652;50.280;19.026;2023-08-07T06:22:35;97169.06;;;16.18;100.00
40920;BME280;26652;50.280;19.026;2023-08-07T06:24:36;97156.13;;;16.08;100.00
40920;BME280;26652;50.280;19.026;2023-08-07T06:26:37;97172.69;;;16.22;100.00
40920;BME280;26652;50.280;19.026;2023-08-07T06:28:37;97173.09;;;16.09;100.00
40920;BME280;26652;50.280;19.026;2023-08-07T06:30:38;97156.00;;;15.93;100.00
40920;BME280;26652;50.280;19.026;2023-08-07T06:32:38;97154.31;;;16.03;100.00
40920;BME280;26652;50.280;19.026;2023-08-07T06:34:39;97154.59;;;16.07;100.00
40920;BME280;26652;50.280;19.026;2023-08-07T06:36:40;97162.09;;;16.14;100.00
40920;BME280;26652;50.280;19.026;2023-08-07T06:38:41;97163.34;;;16.11;100.00
40920;BME280;26652;50.280;19.026;2023-08-07T06:40:41;97158.13;;;16.01;100.00
40920;BME280;26652;50.280;19.026;2023-08-07T06:42:42;97165.16;;;16.11;100.00
40920;BME280;26652;50.280;19.026;2023-08-07T06:44:42;97161.38;;;16.18;100.00
40920;BME280;26652;50.280;19.026;2023-08-07T06:46:43;97159.00;;;16.12;100.00
40920;BME280;26652;50.280;19.026;2023-08-07T06:48:44;97155.56;;;16.01;100.00
40920;BME280;26652;50.280;19.026;2023-08-07T06:50:48;97174.03;;;16.30;100.00
40920;BME280;26652;50.280;19.026;2023-08-07T06:52:49;97167.34;;;16.29;100.00
40920;BME280;26652;50.280;19.026;2023-08-07T06:54:50;97173.63;;;16.11;100.00
40920;BME280;26652;50.280;19.026;2023-08-07T06:56:50;97178.13;;;15.99;100.00
40920;BME280;26652;50.280;19.026;2023-08-07T06:58:51;97178.50;;;16.13;100.00
40920;BME280;26652;50.280;19.026;2023-08-07T07:00:52;97160.59;;;16.18;100.00
40920;BME280;26652;50.280;19.026;2023-08-07T07:02:53;97187.56;;;16.20;100.00
40920;BME280;26652;50.280;19.026;2023-08-07T07:04:53;97177.81;;;16.22;100.00
40920;BME280;26652;50.280;19.026;2023-08-07T07:06:54;97162.13;;;16.19;100.00
40920;BME280;26652;50.280;19.026;2023-08-07T07:08:54;97173.78;;;16.31;100.00
40920;BME280;26652;50.280;19.026;2023-08-07T07:10:55;97189.00;;;16.38;100.00
40920;BME280;26652;50.280;19.026;2023-08-07T07:12:58;97191.47;;;16.28;100.00
40920;BME280;26652;50.280;19.026;2023-08-07T07:14:59;97174.31;;;16.01;100.00
40920;BME280;26652;50.280;19.026;2023-08-07T07:17:00;97187.56;;;16.20;100.00
40920;BME280;26652;50.280;19.026;2023-08-07T07:19:01;97181.69;;;16.25;100.00
40920;BME280;26652;50.280;19.026;2023-08-07T07:21:02;97183.28;;;16.31;100.00
40920;BME280;26652;50.280;19.026;2023-08-07T07:23:02;97185.41;;;16.39;100.00
40920;BME280;26652;50.280;19.026;2023-08-07T07:25:03;97184.72;;;16.49;100.00
40920;BME280;26652;50.280;19.026;2023-08-07T07:27:05;97198.06;;;16.46;100.00
40920;BME280;26652;50.280;19.026;2023-08-07T07:29:05;97187.84;;;16.24;100.00
40920;BME280;26652;50.280;19.026;2023-08-07T07:31:07;97208.16;;;16.25;100.00
40920;BME280;26652;50.280;19.026;2023-08-07T07:33:11;97197.34;;;16.23;100.00
40920;BME280;26652;50.280;19.026;2023-08-07T07:35:14;97209.56;;;16.11;100.00
40920;BME280;26652;50.280;19.026;2023-08-07T07:37:14;97224.81;;;16.23;100.00
40920;BME280;26652;50.280;19.026;2023-08-07T07:39:17;97201.66;;;16.18;100.00
40920;BME280;26652;50.280;19.026;2023-08-07T07:41:17;97207.81;;;16.17;100.00
40920;BME280;26652;50.280;19.026;2023-08-07T07:43:19;97214.97;;;16.15;100.00
40920;BME280;26652;50.280;19.026;2023-08-07T07:45:19;97216.25;;;16.12;100.00
40920;BME280;26652;50.280;19.026;2023-08-07T07:47:20;97226.56;;;16.17;100.00
40920;BME280;26652;50.280;19.026;2023-08-07T07:49:21;97212.19;;;16.16;100.00
40920;BME280;26652;50.280;19.026;2023-08-07T07:51:22;97227.72;;;16.05;100.00
40920;BME280;26652;50.280;19.026;2023-08-07T07:53:22;97225.09;;;15.99;100.00
40920;BME280;26652;50.280;19.026;2023-08-07T07:55:24;97215.94;;;16.09;100.00
40920;BME280;26652;50.280;19.026;2023-08-07T07:57:25;97213.38;;;16.09;100.00
40920;BME280;26652;50.280;19.026;2023-08-07T07:59:26;97218.72;;;16.29;100.00
40920;BME280;26652;50.280;19.026;2023-08-07T08:01:27;97217.56;;;16.47;100.00
40920;BME280;26652;50.280;19.026;2023-08-07T08:03:28;97235.50;;;16.74;100.00
40920;BME280;26652;50.280;19.026;2023-08-07T08:05:29;97233.72;;;16.74;100.00
40920;BME280;26652;50.280;19.026;2023-08-07T08:07:30;97230.22;;;16.53;100.00
40920;BME280;26652;50.280;19.026;2023-08-07T08:09:32;97215.09;;;16.57;100.00
40920;BME280;26652;50.280;19.026;2023-08-07T08:11:33;97222.50;;;16.53;100.00
40920;BME280;26652;50.280;19.026;2023-08-07T08:13:33;97230.41;;;16.47;100.00
40920;BME280;26652;50.280;19.026;2023-08-07T08:15:36;97246.38;;;16.49;100.00
40920;BME280;26652;50.280;19.026;2023-08-07T08:17:36;97256.81;;;16.69;100.00
40920;BME280;26652;50.280;19.026;2023-08-07T08:19:37;97240.81;;;16.62;100.00
40920;BME280;26652;50.280;19.026;2023-08-07T08:21:38;97237.72;;;16.60;100.00
40920;BME280;26652;50.280;19.026;2023-08-07T08:23:39;97232.94;;;16.74;100.00
40920;BME280;26652;50.280;19.026;2023-08-07T08:25:39;97238.97;;;16.89;100.00
40920;BME280;26652;50.280;19.026;2023-08-07T08:27:40;97246.34;;;16.81;100.00
40920;BME280;26652;50.280;19.026;2023-08-07T08:29:41;97240.41;;;16.75;100.00
40920;BME280;26652;50.280;19.026;2023-08-07T08:31:42;97245.41;;;16.92;100.00
40920;BME280;26652;50.280;19.026;2023-08-07T08:33:42;97257.88;;;17.10;100.00
40920;BME280;26652;50.280;19.026;2023-08-07T08:35:43;97255.13;;;17.22;100.00
40920;BME280;26652;50.280;19.026;2023-08-07T08:37:44;97254.28;;;17.11;100.00
40920;BME280;26652;50.280;19.026;2023-08-07T08:39:45;97247.22;;;16.91;100.00
40920;BME280;26652;50.280;19.026;2023-08-07T08:41:46;97246.94;;;16.88;100.00
40920;BME280;26652;50.280;19.026;2023-08-07T08:43:49;97252.47;;;16.75;100.00
40920;BME280;26652;50.280;19.026;2023-08-07T08:45:51;97252.00;;;16.78;100.00
40920;BME280;26652;50.280;19.026;2023-08-07T08:48:01;97265.88;;;17.14;100.00
40920;BME280;26652;50.280;19.026;2023-08-07T08:50:06;97247.13;;;17.18;100.00
40920;BME280;26652;50.280;19.026;2023-08-07T08:52:07;97249.97;;;17.22;100.00
40920;BME280;26652;50.280;19.026;2023-08-07T08:54:08;97261.16;;;17.43;100.00
40920;BME280;26652;50.280;19.026;2023-08-07T08:56:10;97280.28;;;17.62;100.00
40920;BME280;26652;50.280;19.026;2023-08-07T08:58:11;97269.47;;;17.60;100.00
40920;BME280;26652;50.280;19.026;2023-08-07T09:00:13;97259.66;;;17.57;100.00
40920;BME280;26652;50.280;19.026;2023-08-07T09:02:24;97261.38;;;17.36;100.00
40920;BME280;26652;50.280;19.026;2023-08-07T09:04:25;97251.78;;;17.26;100.00
40920;BME280;26652;50.280;19.026;2023-08-07T09:06:27;97265.97;;;17.29;100.00
40920;BME280;26652;50.280;19.026;2023-08-07T09:08:29;97263.53;;;17.12;100.00
40920;BME280;26652;50.280;19.026;2023-08-07T09:10:31;97256.75;;;16.96;100.00
40920;BME280;26652;50.280;19.026;2023-08-07T09:12:33;97271.13;;;16.92;100.00
40920;BME280;26652;50.280;19.026;2023-08-07T09:14:36;97281.16;;;16.93;100.00
40920;BME280;26652;50.280;19.026;2023-08-07T09:16:40;97287.19;;;17.09;100.00
40920;BME280;26652;50.280;19.026;2023-08-07T09:18:41;97283.19;;;17.28;100.00
40920;BME280;26652;50.280;19.026;2023-08-07T09:20:43;97275.25;;;17.35;100.00
40920;BME280;26652;50.280;19.026;2023-08-07T09:22:43;97272.41;;;17.31;100.00
40920;BME280;26652;50.280;19.026;2023-08-07T09:24:44;97279.06;;;17.27;100.00
40920;BME280;26652;50.280;19.026;2023-08-07T09:26:44;97281.91;;;17.31;100.00
40920;BME280;26652;50.280;19.026;2023-08-07T09:28:45;97299.47;;;17.44;100.00
40920;BME280;26652;50.280;19.026;2023-08-07T09:30:46;97285.41;;;17.15;100.00
40920;BME280;26652;50.280;19.026;2023-08-07T09:32:48;97294.84;;;17.41;100.00
40920;BME280;26652;50.280;19.026;2023-08-07T09:34:50;97283.50;;;17.37;100.00
40920;BME280;26652;50.280;19.026;2023-08-07T09:36:56;97289.91;;;17.35;100.00
40920;BME280;26652;50.280;19.026;2023-08-07T09:39:00;97287.38;;;17.40;100.00
40920;BME280;26652;50.280;19.026;2023-08-07T09:41:03;97295.56;;;17.31;100.00
40920;BME280;26652;50.280;19.026;2023-08-07T09:43:04;97289.78;;;17.14;100.00
40920;BME280;26652;50.280;19.026;2023-08-07T09:45:19;97309.41;;;17.25;100.00
40920;BME280;26652;50.280;19.026;2023-08-07T09:47:19;97293.09;;;17.10;100.00
40920;BME280;26652;50.280;19.026;2023-08-07T09:49:21;97292.25;;;16.99;100.00
40920;BME280;26652;50.280;19.026;2023-08-07T09:51:21;97289.50;;;17.11;100.00
40920;BME280;26652;50.280;19.026;2023-08-07T09:53:26;97296.16;;;17.07;100.00
40920;BME280;26652;50.280;19.026;2023-08-07T09:55:27;97306.13;;;16.98;100.00
40920;BME280;26652;50.280;19.026;2023-08-07T09:57:28;97321.00;;;16.96;100.00
40920;BME280;26652;50.280;19.026;2023-08-07T09:59:29;97301.16;;;16.86;100.00
40920;BME280;26652;50.280;19.026;2023-08-07T10:01:29;97302.69;;;16.87;100.00
40920;BME280;26652;50.280;19.026;2023-08-07T10:03:31;97312.34;;;17.07;100.00
40920;BME280;26652;50.280;19.026;2023-08-07T10:05:32;97329.19;;;17.25;100.00
40920;BME280;26652;50.280;19.026;2023-08-07T10:07:33;97313.16;;;17.13;100.00
40920;BME280;26652;50.280;19.026;2023-08-07T10:09:34;97337.06;;;17.45;100.00
40920;BME280;26652;50.280;19.026;2023-08-07T10:11:35;97338.13;;;17.54;100.00
40920;BME280;26652;50.280;19.026;2023-08-07T10:13:37;97320.19;;;17.22;100.00
40920;BME280;26652;50.280;19.026;2023-08-07T10:15:38;97348.56;;;17.38;100.00
40920;BME280;26652;50.280;19.026;2023-08-07T10:17:40;97342.41;;;17.39;100.00
40920;BME280;26652;50.280;19.026;2023-08-07T10:19:41;97353.19;;;17.36;100.00
40920;BME280;26652;50.280;19.026;2023-08-07T10:21:42;97358.97;;;17.16;100.00
40920;BME280;26652;50.280;19.026;2023-08-07T10:23:44;97348.56;;;16.74;98.24
40920;BME280;26652;50.280;19.026;2023-08-07T10:25:46;97358.19;;;16.56;100.00